createdAt,value
2018-08-11T00:00:25.492Z,23.10
2018-08-11T00:02:54.101Z,23.10
2018-08-11T00:05:22.427Z,23.10
2018-08-11T00:07:51.137Z,23.20
2018-08-11T00:10:19.817Z,23.20
2018-08-11T00:12:48.151Z,23.20
2018-08-11T00:15:17.862Z,23.20
2018-08-11T00:17:46.418Z,23.20
2018-08-11T00:20:20.045Z,23.20
2018-08-11T00:22:48.418Z,23.20
2018-08-11T00:25:17.221Z,24.00
2018-08-11T00:27:45.562Z,23.20
2018-08-11T00:30:17.185Z,23.20
2018-08-11T00:32:45.492Z,23.20
2018-08-11T00:35:14.920Z,23.10
2018-08-11T00:37:43.761Z,23.10
2018-08-11T00:40:14.078Z,23.10
2018-08-11T00:42:43.605Z,23.10
2018-08-11T00:45:13.244Z,23.10
2018-08-11T00:47:41.671Z,23.00
2018-08-11T00:50:18.666Z,23.10
2018-08-11T00:52:46.975Z,23.00
2018-08-11T00:55:15.277Z,23.00
2018-08-11T00:57:43.635Z,23.00
2018-08-11T01:00:14.635Z,23.10
2018-08-11T01:02:43.649Z,23.00
2018-08-11T01:05:15.080Z,23.00
2018-08-11T01:07:43.846Z,23.00
2018-08-11T01:10:12.870Z,23.00
2018-08-11T01:12:42.055Z,23.00
2018-08-11T01:15:13.674Z,23.00
2018-08-11T01:17:41.971Z,23.00
2018-08-11T01:20:11.369Z,23.00
2018-08-11T01:22:40.595Z,23.00
2018-08-11T01:25:09.916Z,23.00
2018-08-11T01:27:38.281Z,23.00
2018-08-11T01:30:10.018Z,23.00
2018-08-11T01:32:38.431Z,23.00
2018-08-11T01:35:07.625Z,23.00
2018-08-11T01:37:36.807Z,23.00
2018-08-11T01:40:05.927Z,23.00
2018-08-11T01:42:34.223Z,23.00
2018-08-11T01:45:02.523Z,23.00
2018-08-11T01:47:31.081Z,23.00
2018-08-11T01:49:59.355Z,23.00
2018-08-11T01:52:27.633Z,23.00
2018-08-11T01:54:56.195Z,23.00
2018-08-11T01:57:24.518Z,23.00
2018-08-11T01:59:53.012Z,23.00
2018-08-11T02:02:21.543Z,23.00
2018-08-11T02:04:49.873Z,23.00
2018-08-11T02:07:18.265Z,23.00
2018-08-11T02:09:46.601Z,23.00
2018-08-11T02:12:14.950Z,23.00
2018-08-11T02:14:43.328Z,23.00
2018-08-11T02:17:11.638Z,23.00
2018-08-11T02:19:40.002Z,23.00
2018-08-11T02:22:08.305Z,23.00
2018-08-11T02:24:36.715Z,23.10
2018-08-11T02:27:05.019Z,23.00
2018-08-11T02:29:33.362Z,23.00
2018-08-11T02:32:01.855Z,23.00
2018-08-11T02:34:30.237Z,23.00
2018-08-11T02:36:58.453Z,23.00
2018-08-11T02:39:26.785Z,23.00
2018-08-11T02:41:55.071Z,23.00
2018-08-11T02:44:23.363Z,23.00
2018-08-11T02:46:51.705Z,23.00
2018-08-11T02:49:20.070Z,23.00
2018-08-11T02:51:48.448Z,23.00
2018-08-11T02:54:16.862Z,23.00
2018-08-11T02:56:45.160Z,23.00
2018-08-11T02:59:13.441Z,23.00
2018-08-11T03:01:41.742Z,23.00
2018-08-11T03:04:10.151Z,23.00
2018-08-11T03:06:38.515Z,23.00
2018-08-11T03:09:08.123Z,23.00
2018-08-11T03:11:36.454Z,23.00
2018-08-11T03:14:04.869Z,23.00
2018-08-11T03:16:33.180Z,23.00
2018-08-11T03:19:01.632Z,23.00
2018-08-11T03:21:29.908Z,23.00
2018-08-11T03:23:58.425Z,23.00
2018-08-11T03:26:27.088Z,23.00
2018-08-11T03:28:55.382Z,23.00
2018-08-11T03:31:23.736Z,23.00
2018-08-11T03:33:52.462Z,23.00
2018-08-11T03:36:20.783Z,23.00
2018-08-11T03:38:49.067Z,23.00
2018-08-11T03:41:17.407Z,23.00
2018-08-11T03:43:45.706Z,23.00
2018-08-11T03:46:14.017Z,23.00
2018-08-11T03:48:42.316Z,23.00
2018-08-11T03:51:10.618Z,23.00
2018-08-11T03:53:38.966Z,23.00
2018-08-11T03:56:07.304Z,23.00
2018-08-11T03:58:35.632Z,23.00
2018-08-11T04:01:03.970Z,23.00
2018-08-11T04:03:32.478Z,23.00
2018-08-11T04:06:00.790Z,23.00
2018-08-11T04:08:29.091Z,22.90
2018-08-11T04:10:57.363Z,23.00
2018-08-11T04:13:25.664Z,23.00
2018-08-11T04:15:53.936Z,23.00
2018-08-11T04:18:22.253Z,23.00
2018-08-11T04:20:50.640Z,23.00
2018-08-11T04:23:18.950Z,23.00
2018-08-11T04:25:47.312Z,23.00
2018-08-11T04:28:15.631Z,23.00
2018-08-11T04:30:44.891Z,23.00
2018-08-11T04:33:13.182Z,23.00
2018-08-11T04:35:41.551Z,23.00
2018-08-11T04:38:09.941Z,23.00
2018-08-11T04:40:38.252Z,23.00
2018-08-11T04:43:06.559Z,23.00
2018-08-11T04:45:34.857Z,22.90
2018-08-11T04:48:04.791Z,23.00
2018-08-11T04:50:33.104Z,22.90
2018-08-11T04:53:01.402Z,22.90
2018-08-11T04:55:29.805Z,22.90
2018-08-11T04:57:58.093Z,22.90
2018-08-11T05:00:26.372Z,22.90
2018-08-11T05:02:54.707Z,22.90
2018-08-11T05:05:23.026Z,22.90
2018-08-11T05:07:51.352Z,22.90
2018-08-11T05:10:19.622Z,22.90
2018-08-11T05:12:47.963Z,22.90
2018-08-11T05:15:16.270Z,22.90
2018-08-11T05:17:44.679Z,22.90
2018-08-11T05:20:12.947Z,22.90
2018-08-11T05:22:41.248Z,23.00
2018-08-11T05:25:09.572Z,22.90
2018-08-11T05:27:37.893Z,22.90
2018-08-11T05:30:06.701Z,22.90
2018-08-11T05:32:35.023Z,23.00
2018-08-11T05:35:03.540Z,23.00
2018-08-11T05:37:31.872Z,23.00
2018-08-11T05:40:00.176Z,23.00
2018-08-11T05:42:28.481Z,23.00
2018-08-11T05:44:56.819Z,23.00
2018-08-11T05:47:25.139Z,23.00
2018-08-11T05:49:53.832Z,23.00
2018-08-11T05:52:22.373Z,23.00
2018-08-11T05:54:50.658Z,23.00
2018-08-11T05:57:18.989Z,23.00
2018-08-11T05:59:47.403Z,23.00
2018-08-11T06:02:15.789Z,23.00
2018-08-11T06:04:44.066Z,23.00
2018-08-11T06:07:12.350Z,23.00
2018-08-11T06:09:40.627Z,23.00
2018-08-11T06:12:08.996Z,23.00
2018-08-11T06:14:37.274Z,23.00
2018-08-11T06:17:05.583Z,23.00
2018-08-11T06:19:33.892Z,23.00
2018-08-11T06:22:02.959Z,23.00
2018-08-11T06:24:31.285Z,23.00
2018-08-11T06:26:59.633Z,23.00
2018-08-11T06:29:27.943Z,23.00
2018-08-11T06:31:56.374Z,23.00
2018-08-11T06:34:24.606Z,23.00
2018-08-11T06:36:52.897Z,23.00
2018-08-11T06:39:21.331Z,23.00
2018-08-11T06:41:49.752Z,23.00
2018-08-11T06:44:18.116Z,23.00
2018-08-11T06:46:46.493Z,23.00
2018-08-11T06:49:14.849Z,23.00
2018-08-11T06:51:43.127Z,23.00
2018-08-11T06:54:11.710Z,23.00
2018-08-11T06:56:40.083Z,23.10
2018-08-11T06:59:08.411Z,23.10
2018-08-11T07:01:36.763Z,23.10
2018-08-11T07:04:05.201Z,23.10
2018-08-11T07:06:33.556Z,23.10
2018-08-11T07:09:01.719Z,22.80
2018-08-11T07:11:30.015Z,22.60
2018-08-11T07:13:58.290Z,22.50
2018-08-11T07:16:26.602Z,22.50
2018-08-11T07:18:54.864Z,22.50
2018-08-11T07:21:23.201Z,22.40
2018-08-11T07:23:51.407Z,22.40
2018-08-11T07:26:19.671Z,22.40
2018-08-11T07:28:47.948Z,22.40
2018-08-11T07:31:16.267Z,22.40
2018-08-11T07:33:44.538Z,22.40
2018-08-11T07:36:13.055Z,22.40
2018-08-11T07:38:41.259Z,22.40
2018-08-11T07:41:09.588Z,22.50
2018-08-11T07:43:37.945Z,22.40
2018-08-11T07:46:06.486Z,22.40
2018-08-11T07:48:34.828Z,22.40
2018-08-11T07:51:03.071Z,22.30
2018-08-11T07:53:31.350Z,22.30
2018-08-11T07:55:59.629Z,22.30
2018-08-11T07:58:27.910Z,22.30
2018-08-11T08:00:56.178Z,22.30
2018-08-11T08:03:24.463Z,22.40
2018-08-11T08:05:52.786Z,22.30
2018-08-11T08:08:21.271Z,22.30
2018-08-11T08:10:49.587Z,22.30
2018-08-11T08:13:17.871Z,22.30
2018-08-11T08:15:46.134Z,22.30
2018-08-11T08:18:14.435Z,22.20
2018-08-11T08:20:42.701Z,22.20
2018-08-11T08:23:11.006Z,22.20
2018-08-11T08:25:39.283Z,22.30
2018-08-11T08:28:07.343Z,22.50
2018-08-11T08:30:35.624Z,22.50
2018-08-11T08:33:04.680Z,22.60
2018-08-11T08:35:32.955Z,22.70
2018-08-11T08:38:01.242Z,22.80
2018-08-11T08:40:29.535Z,22.80
2018-08-11T08:42:57.854Z,22.80
2018-08-11T08:45:26.220Z,22.90
2018-08-11T08:47:54.654Z,23.00
2018-08-11T08:50:23.092Z,23.00
2018-08-11T08:52:51.582Z,23.10
2018-08-11T08:55:19.963Z,23.10
2018-08-11T08:57:48.275Z,23.10
2018-08-11T09:00:16.619Z,23.10
2018-08-11T09:02:44.930Z,23.00
2018-08-11T09:05:13.234Z,22.80
2018-08-11T09:07:41.514Z,22.70
2018-08-11T09:10:09.870Z,22.80
2018-08-11T09:12:38.171Z,22.90
2018-08-11T09:15:07.004Z,23.00
2018-08-11T09:17:35.300Z,23.00
2018-08-11T09:20:03.610Z,23.10
2018-08-11T09:22:31.923Z,23.10
2018-08-11T09:25:00.265Z,23.10
2018-08-11T09:27:28.566Z,23.20
2018-08-11T09:29:56.887Z,23.20
2018-08-11T09:32:25.220Z,23.20
2018-08-11T09:34:53.661Z,23.30
2018-08-11T09:37:22.052Z,23.40
2018-08-11T09:39:50.415Z,23.40
2018-08-11T09:42:18.861Z,23.50
2018-08-11T09:44:47.286Z,23.50
2018-08-11T09:47:15.711Z,23.60
2018-08-11T09:49:44.204Z,23.60
2018-08-11T09:52:12.617Z,23.70
2018-08-11T09:54:41.171Z,23.70
2018-08-11T09:57:09.583Z,23.80
2018-08-11T09:59:37.950Z,23.80
2018-08-11T10:02:11.603Z,23.80
2018-08-11T10:04:39.906Z,23.70
2018-08-11T10:07:08.268Z,23.70
2018-08-11T10:09:36.723Z,23.70
2018-08-11T10:12:05.100Z,23.80
2018-08-11T10:14:33.502Z,23.70
2018-08-11T10:17:01.827Z,23.80
2018-08-11T10:19:30.146Z,23.70
2018-08-11T10:21:58.493Z,23.80
2018-08-11T10:24:26.927Z,23.80
2018-08-11T10:26:55.411Z,23.80
2018-08-11T10:29:23.775Z,23.80
2018-08-11T10:31:52.075Z,23.60
2018-08-11T10:34:20.363Z,23.40
2018-08-11T10:36:48.694Z,23.40
2018-08-11T10:39:17.031Z,23.40
2018-08-11T10:41:45.549Z,23.50
2018-08-11T10:44:13.932Z,23.60
2018-08-11T10:46:42.445Z,23.60
2018-08-11T10:49:10.829Z,23.70
2018-08-11T10:51:39.224Z,23.60
2018-08-11T10:54:07.634Z,23.60
2018-08-11T10:56:36.087Z,23.60
2018-08-11T10:59:04.479Z,23.60
2018-08-11T11:01:32.822Z,23.60
2018-08-11T11:04:01.174Z,23.70
2018-08-11T11:06:29.587Z,23.80
2018-08-11T11:08:58.017Z,23.80
2018-08-11T11:11:26.411Z,23.70
2018-08-11T11:13:54.779Z,23.70
2018-08-11T11:16:23.146Z,23.70
2018-08-11T11:18:51.497Z,23.70
2018-08-11T11:21:19.898Z,23.80
2018-08-11T11:23:48.234Z,23.90
2018-08-11T11:26:16.956Z,23.90
2018-08-11T11:28:45.319Z,24.00
2018-08-11T11:31:13.796Z,24.00
2018-08-11T11:33:42.844Z,24.00
2018-08-11T11:36:11.217Z,24.10
2018-08-11T11:38:39.612Z,24.10
2018-08-11T11:41:08.398Z,24.00
2018-08-11T11:43:36.758Z,24.00
2018-08-11T11:46:05.227Z,24.10
2018-08-11T11:48:33.805Z,24.10
2018-08-11T11:51:02.162Z,24.10
2018-08-11T11:53:30.488Z,24.10
2018-08-11T11:55:58.874Z,24.10
2018-08-11T11:58:27.712Z,24.20
2018-08-11T12:00:56.349Z,24.20
2018-08-11T12:03:25.279Z,24.20
2018-08-11T12:05:53.675Z,24.20
2018-08-11T12:08:22.557Z,24.20
2018-08-11T12:10:50.971Z,24.10
2018-08-11T12:13:19.870Z,24.10
2018-08-11T12:15:48.907Z,24.10
2018-08-11T12:18:17.224Z,24.10
2018-08-11T12:20:45.580Z,24.10
2018-08-11T12:23:13.983Z,24.20
2018-08-11T12:25:42.403Z,24.20
2018-08-11T12:28:10.688Z,24.20
2018-08-11T12:30:39.028Z,24.30
2018-08-11T12:33:07.499Z,24.20
2018-08-11T12:35:35.824Z,24.20
2018-08-11T12:38:04.163Z,24.20
2018-08-11T12:40:32.462Z,24.30
2018-08-11T12:43:00.752Z,24.30
2018-08-11T12:45:29.101Z,24.30
2018-08-11T12:47:57.441Z,24.30
2018-08-11T12:50:25.765Z,24.30
2018-08-11T12:52:54.113Z,24.30
2018-08-11T12:55:22.434Z,24.30
2018-08-11T12:57:50.759Z,24.30
2018-08-11T13:00:19.048Z,24.30
2018-08-11T13:02:47.387Z,24.30
2018-08-11T13:05:15.733Z,24.30
2018-08-11T13:07:45.427Z,24.30
2018-08-11T13:10:13.909Z,24.30
2018-08-11T13:12:42.397Z,24.30
2018-08-11T13:15:10.779Z,24.40
2018-08-11T13:17:40.770Z,24.40
2018-08-11T13:20:09.507Z,24.40
2018-08-11T13:22:38.550Z,24.40
2018-08-11T13:25:07.023Z,24.40
2018-08-11T13:27:36.465Z,24.30
2018-08-11T13:30:06.548Z,24.30
2018-08-11T13:32:35.651Z,24.30
2018-08-11T13:35:06.196Z,24.30
2018-08-11T13:37:35.041Z,24.20
2018-08-11T13:40:03.798Z,24.20
2018-08-11T13:42:32.086Z,24.20
2018-08-11T13:45:00.437Z,24.20
2018-08-11T13:47:29.963Z,24.20
2018-08-11T13:49:58.392Z,24.20
2018-08-11T13:52:27.980Z,24.20
2018-08-11T13:54:56.551Z,24.30
2018-08-11T13:57:25.485Z,24.20
2018-08-11T13:59:54.965Z,24.20
2018-08-11T14:02:23.418Z,24.20
2018-08-11T14:04:51.744Z,24.20
2018-08-11T14:07:21.319Z,24.20
2018-08-11T14:09:49.924Z,24.20
2018-08-11T14:12:18.470Z,24.20
2018-08-11T14:14:47.010Z,24.20
2018-08-11T14:17:15.610Z,24.20
2018-08-11T14:19:44.012Z,24.20
2018-08-11T14:22:12.392Z,24.20
2018-08-11T14:24:40.756Z,24.10
2018-08-11T14:27:09.157Z,24.10
2018-08-11T14:29:37.472Z,24.20
2018-08-11T14:32:06.318Z,24.20
2018-08-11T14:34:34.776Z,24.20
2018-08-11T14:37:03.016Z,24.20
2018-08-11T14:39:32.131Z,24.20
2018-08-11T14:42:00.634Z,24.20
2018-08-11T14:44:29.015Z,24.20
2018-08-11T14:46:57.355Z,24.20
2018-08-11T14:49:25.683Z,24.20
2018-08-11T14:51:54.084Z,24.20
2018-08-11T14:54:22.473Z,24.00
2018-08-11T14:56:51.166Z,23.90
2018-08-11T14:59:20.500Z,23.80
2018-08-11T15:01:49.034Z,23.70
2018-08-11T15:04:17.442Z,23.60
2018-08-11T15:06:47.387Z,23.60
2018-08-11T15:09:16.029Z,23.60
2018-08-11T15:11:45.064Z,23.50
2018-08-11T15:14:13.876Z,23.50
2018-08-11T15:16:43.046Z,23.40
2018-08-11T15:19:11.656Z,23.40
2018-08-11T15:21:40.064Z,23.40
2018-08-11T15:24:08.723Z,23.30
2018-08-11T15:26:38.583Z,23.40
2018-08-11T15:29:07.035Z,23.40
2018-08-11T15:31:35.515Z,23.40
2018-08-11T15:34:04.323Z,23.40
2018-08-11T15:36:32.859Z,23.30
2018-08-11T15:39:01.333Z,23.40
2018-08-11T15:41:29.835Z,23.40
2018-08-11T15:43:58.373Z,23.30
2018-08-11T15:46:26.684Z,23.20
2018-08-11T15:48:55.149Z,23.30
2018-08-11T15:51:23.655Z,23.30
2018-08-11T15:53:52.212Z,23.30
2018-08-11T15:56:21.287Z,23.30
2018-08-11T15:58:49.758Z,23.30
2018-08-11T16:01:18.091Z,23.30
2018-08-11T16:03:46.491Z,23.30
2018-08-11T16:06:16.075Z,23.30
2018-08-11T16:08:44.363Z,23.30
2018-08-11T16:11:12.696Z,23.30
2018-08-11T16:13:41.051Z,23.30
2018-08-11T16:16:09.602Z,23.30
2018-08-11T16:18:38.240Z,23.40
2018-08-11T16:21:06.748Z,23.30
2018-08-11T16:23:36.631Z,23.10
2018-08-11T16:26:05.292Z,23.00
2018-08-11T16:28:33.586Z,23.00
2018-08-11T16:31:02.028Z,22.90
2018-08-11T16:33:30.379Z,23.00
2018-08-11T16:35:58.894Z,23.00
2018-08-11T16:38:27.332Z,23.10
2018-08-11T16:40:55.727Z,23.40
2018-08-11T16:43:24.374Z,23.60
2018-08-11T16:45:53.047Z,23.70
2018-08-11T16:48:21.698Z,23.70
2018-08-11T16:50:50.027Z,23.70
2018-08-11T16:53:18.712Z,23.70
2018-08-11T16:55:48.537Z,23.70
2018-08-11T16:58:16.891Z,23.70
2018-08-11T17:00:45.842Z,23.70
2018-08-11T17:03:14.567Z,23.70
2018-08-11T17:05:44.077Z,23.70
2018-08-11T17:08:12.893Z,23.70
2018-08-11T17:10:41.463Z,23.60
2018-08-11T17:13:10.254Z,23.40
2018-08-11T17:15:40.199Z,23.40
2018-08-11T17:18:08.573Z,23.40
2018-08-11T17:20:36.906Z,23.40
2018-08-11T17:23:05.235Z,23.50
2018-08-11T17:25:33.547Z,23.50
2018-08-11T17:28:01.927Z,23.40
2018-08-11T17:30:31.254Z,23.40
2018-08-11T17:32:59.980Z,23.40
2018-08-11T17:35:28.747Z,23.40
2018-08-11T17:37:57.508Z,23.40
2018-08-11T17:40:26.383Z,23.40
2018-08-11T17:42:54.695Z,23.40
2018-08-11T17:45:23.698Z,23.40
2018-08-11T17:47:53.228Z,23.30
2018-08-11T17:50:21.914Z,23.30
2018-08-11T17:52:51.261Z,23.30
2018-08-11T17:55:20.194Z,23.20
2018-08-11T17:57:48.871Z,23.20
2018-08-11T18:00:17.668Z,23.20
2018-08-11T18:02:47.772Z,23.10
2018-08-11T18:05:16.718Z,23.10
2018-08-11T18:07:45.492Z,23.20
2018-08-11T18:10:13.818Z,23.30
2018-08-11T18:12:43.019Z,23.30
2018-08-11T18:15:12.732Z,23.40
2018-08-11T18:17:41.108Z,23.50
2018-08-11T18:20:10.760Z,23.50
2018-08-11T18:22:39.950Z,23.50
2018-08-11T18:25:08.712Z,23.60
2018-08-11T18:27:38.056Z,23.60
2018-08-11T18:30:06.895Z,23.60
2018-08-11T18:32:35.650Z,23.60
2018-08-11T18:35:04.595Z,23.70
2018-08-11T18:37:33.306Z,23.60
2018-08-11T18:40:02.644Z,23.70
2018-08-11T18:42:32.487Z,23.70
2018-08-11T18:45:00.971Z,23.70
2018-08-11T18:47:29.815Z,23.70
2018-08-11T18:49:58.645Z,23.70
2018-08-11T18:52:28.501Z,23.70
2018-08-11T18:54:56.891Z,23.70
2018-08-11T18:57:25.748Z,23.60
2018-08-11T18:59:54.110Z,23.60
2018-08-11T19:02:24.024Z,23.60
2018-08-11T19:04:52.776Z,23.60
2018-08-11T19:07:21.578Z,23.70
2018-08-11T19:09:50.369Z,23.70
2018-08-11T19:12:19.571Z,23.70
2018-08-11T19:14:47.976Z,23.70
2018-08-11T19:17:16.325Z,23.70
2018-08-11T19:19:45.227Z,23.70
2018-08-11T19:22:13.914Z,23.70
2018-08-11T19:24:42.261Z,23.70
2018-08-11T19:27:10.632Z,23.70
2018-08-11T19:29:39.830Z,23.70
2018-08-11T19:32:08.383Z,23.70
2018-08-11T19:34:36.943Z,23.70
2018-08-11T19:37:05.371Z,23.70
2018-08-11T19:39:33.778Z,23.70
2018-08-11T19:42:03.095Z,23.70
2018-08-11T19:44:33.397Z,23.70
2018-08-11T19:47:02.076Z,23.70
2018-08-11T19:49:30.569Z,23.70
2018-08-11T19:51:58.919Z,23.70
2018-08-11T19:54:27.271Z,23.70
2018-08-11T19:56:55.617Z,23.70
2018-08-11T19:59:24.058Z,23.70
2018-08-11T20:01:52.951Z,23.70
2018-08-11T20:04:21.622Z,23.70
2018-08-11T20:06:50.288Z,23.70
2018-08-11T20:09:18.668Z,23.70
2018-08-11T20:11:46.982Z,23.70
2018-08-11T20:14:15.718Z,23.70
2018-08-11T20:16:44.160Z,23.70
2018-08-11T20:19:12.854Z,23.70
2018-08-11T20:21:41.427Z,23.70
2018-08-11T20:24:09.906Z,23.70
2018-08-11T20:26:38.545Z,23.70
2018-08-11T20:29:06.972Z,23.70
2018-08-11T20:31:35.326Z,23.70
2018-08-11T20:34:03.720Z,23.70
2018-08-11T20:36:32.508Z,23.70
2018-08-11T20:39:00.850Z,23.60
2018-08-11T20:41:29.537Z,23.70
2018-08-11T20:43:58.399Z,23.70
2018-08-11T20:46:26.833Z,23.60
2018-08-11T20:48:55.779Z,23.60
2018-08-11T20:51:24.148Z,23.60
2018-08-11T20:53:52.616Z,23.60
2018-08-11T20:56:21.024Z,23.60
2018-08-11T20:58:49.481Z,23.60
2018-08-11T21:01:17.832Z,23.60
2018-08-11T21:03:46.182Z,23.60
2018-08-11T21:06:14.485Z,23.60
2018-08-11T21:08:42.893Z,23.60
2018-08-11T21:11:11.280Z,23.60
2018-08-11T21:13:39.595Z,23.60
2018-08-11T21:16:08.025Z,23.60
2018-08-11T21:18:36.415Z,23.60
2018-08-11T21:21:04.903Z,23.60
2018-08-11T21:23:33.395Z,23.60
2018-08-11T21:26:01.610Z,23.60
2018-08-11T21:28:29.956Z,23.60
2018-08-11T21:30:58.467Z,23.70
2018-08-11T21:33:26.953Z,23.70
2018-08-11T21:35:55.284Z,23.70
2018-08-11T21:38:23.587Z,23.70
2018-08-11T21:40:51.938Z,23.60
2018-08-11T21:43:20.276Z,23.70
2018-08-11T21:45:48.768Z,23.70
2018-08-11T21:48:17.118Z,23.70
2018-08-11T21:50:45.524Z,23.60
2018-08-11T21:53:13.954Z,23.60
2018-08-11T21:55:42.282Z,23.60
2018-08-11T21:58:10.690Z,23.60
2018-08-11T22:00:39.151Z,23.50
2018-08-11T22:03:08.461Z,23.60
2018-08-11T22:05:36.792Z,23.60
2018-08-11T22:08:05.128Z,23.60
2018-08-11T22:10:33.519Z,23.60
2018-08-11T22:13:01.897Z,23.60
2018-08-11T22:15:30.276Z,23.60
2018-08-11T22:17:58.650Z,23.60
2018-08-11T22:20:27.227Z,23.60
2018-08-11T22:22:55.614Z,23.60
2018-08-11T22:25:23.992Z,23.60
2018-08-11T22:27:52.351Z,23.60
2018-08-11T22:30:20.753Z,23.50
2018-08-11T22:32:49.157Z,23.50
2018-08-11T22:35:17.621Z,23.60
2018-08-11T22:37:45.989Z,23.60
2018-08-11T22:40:14.422Z,23.60
2018-08-11T22:42:42.746Z,23.60
2018-08-11T22:45:11.850Z,23.70
2018-08-11T22:47:40.449Z,23.70
2018-08-11T22:50:10.791Z,23.60
2018-08-11T22:52:39.759Z,23.60
2018-08-11T22:55:08.491Z,23.70
2018-08-11T22:57:37.222Z,23.70
2018-08-11T23:00:09.188Z,23.70
2018-08-11T23:02:37.588Z,23.70
2018-08-11T23:05:06.063Z,23.70
2018-08-11T23:07:34.427Z,23.70
2018-08-11T23:10:02.945Z,23.70
2018-08-11T23:12:31.308Z,23.70
2018-08-11T23:14:59.648Z,23.70
2018-08-11T23:17:28.034Z,23.70
2018-08-11T23:19:56.480Z,23.70
2018-08-11T23:22:24.911Z,23.70
2018-08-11T23:24:53.258Z,23.70
2018-08-11T23:27:21.641Z,23.70
2018-08-11T23:29:50.029Z,23.70
2018-08-11T23:32:18.392Z,23.70
2018-08-11T23:34:46.748Z,23.70
2018-08-11T23:37:15.120Z,23.70
2018-08-11T23:39:43.447Z,23.70
2018-08-11T23:42:11.872Z,23.80
2018-08-11T23:44:40.202Z,23.80
2018-08-11T23:47:08.545Z,23.70
2018-08-11T23:49:36.946Z,23.80
2018-08-11T23:52:05.311Z,23.80
2018-08-11T23:54:33.618Z,23.80
2018-08-11T23:57:02.214Z,23.80
2018-08-11T23:59:30.824Z,23.80
